createdAt,value
2023-05-12T00:00:44.615Z,83.55
2023-05-12T00:03:14.385Z,83.36
2023-05-12T00:05:42.291Z,83.61
2023-05-12T00:08:10.296Z,83.29
2023-05-12T00:10:38.202Z,83.29
2023-05-12T00:13:06.190Z,83.58
2023-05-12T00:15:34.064Z,84.04
2023-05-12T00:18:01.860Z,84.46
2023-05-12T00:20:29.701Z,83.96
2023-05-12T00:22:57.440Z,84.12
2023-05-12T00:25:25.193Z,84.03
2023-05-12T00:27:52.904Z,83.98
2023-05-12T00:30:21.350Z,84.13
2023-05-12T00:32:49.435Z,83.80
2023-05-12T00:35:17.935Z,83.67
2023-05-12T00:37:45.835Z,83.93
2023-05-12T00:40:13.841Z,84.00
2023-05-12T00:42:42.118Z,84.18
2023-05-12T00:45:10.698Z,84.59
2023-05-12T00:47:39.155Z,84.48
2023-05-12T00:50:08.551Z,84.57
2023-05-12T00:52:36.665Z,84.73
2023-05-12T00:55:05.652Z,85.05
2023-05-12T00:57:33.814Z,84.83
2023-05-12T01:00:01.935Z,84.82
2023-05-12T01:02:30.463Z,84.81
2023-05-12T01:04:58.581Z,84.73
2023-05-12T01:07:27.832Z,84.94
2023-05-12T01:09:56.548Z,84.97
2023-05-12T01:12:27.421Z,84.75
2023-05-12T01:14:57.311Z,85.15
2023-05-12T01:17:36.116Z,85.80
2023-05-12T01:20:09.390Z,86.37
2023-05-12T01:22:38.992Z,86.05
2023-05-12T01:25:12.542Z,86.50
2023-05-12T01:27:43.046Z,86.95
2023-05-12T01:30:16.925Z,87.06
2023-05-12T01:32:45.638Z,87.20
2023-05-12T01:35:13.623Z,87.16
2023-05-12T01:37:47.307Z,87.61
2023-05-12T01:40:15.358Z,87.59
2023-05-12T01:42:43.325Z,87.86
2023-05-12T01:45:12.710Z,87.41
2023-05-12T01:47:41.111Z,87.50
2023-05-12T01:50:10.952Z,87.69
2023-05-12T01:52:39.102Z,87.65
2023-05-12T01:55:10.855Z,87.62
2023-05-12T01:57:45.862Z,87.68
2023-05-12T02:00:14.646Z,87.90
2023-05-12T02:02:45.215Z,87.48
2023-05-12T02:05:13.634Z,87.54
2023-05-12T02:07:42.511Z,87.22
2023-05-12T02:10:10.707Z,87.72
2023-05-12T02:12:39.115Z,87.96
2023-05-12T02:15:07.609Z,87.98
2023-05-12T02:17:37.087Z,87.84
2023-05-12T02:20:06.849Z,87.71
2023-05-12T02:22:34.720Z,87.53
2023-05-12T02:25:02.902Z,87.61
2023-05-12T02:27:32.548Z,88.19
2023-05-12T02:30:00.371Z,88.17
2023-05-12T02:32:28.664Z,87.98
2023-05-12T02:34:56.978Z,87.92
2023-05-12T02:37:24.947Z,88.10
2023-05-12T02:39:52.801Z,88.12
2023-05-12T02:42:20.755Z,87.81
2023-05-12T02:44:48.591Z,87.36
2023-05-12T02:47:16.378Z,87.47
2023-05-12T02:49:44.513Z,87.29
2023-05-12T02:52:12.393Z,87.38
2023-05-12T02:54:40.284Z,87.33
2023-05-12T02:57:08.254Z,87.05
2023-05-12T02:59:36.069Z,86.89
2023-05-12T03:02:05.546Z,86.85
2023-05-12T03:04:33.555Z,86.54
2023-05-12T03:07:01.406Z,86.03
2023-05-12T03:09:29.304Z,85.20
2023-05-12T03:11:57.938Z,84.95
2023-05-12T03:14:26.679Z,84.33
2023-05-12T03:16:54.499Z,83.93
2023-05-12T03:19:22.309Z,83.73
2023-05-12T03:21:51.199Z,83.56
2023-05-12T03:24:18.979Z,83.32
2023-05-12T03:26:46.989Z,83.36
2023-05-12T03:29:14.727Z,83.52
2023-05-12T03:31:42.557Z,83.59
2023-05-12T03:34:10.640Z,83.58
2023-05-12T03:36:38.680Z,83.86
2023-05-12T03:39:08.753Z,84.12
2023-05-12T03:41:37.002Z,84.31
2023-05-12T03:44:06.232Z,84.38
2023-05-12T03:46:35.208Z,84.29
2023-05-12T03:49:03.282Z,84.32
2023-05-12T03:51:31.241Z,83.87
2023-05-12T03:53:59.106Z,84.05
2023-05-12T03:56:28.546Z,84.07
2023-05-12T03:58:57.555Z,84.04
2023-05-12T04:01:25.553Z,84.12
2023-05-12T04:03:53.455Z,84.24
2023-05-12T04:06:21.450Z,84.25
2023-05-12T04:08:49.242Z,84.27
2023-05-12T04:11:17.033Z,84.31
2023-05-12T04:13:45.022Z,84.37
2023-05-12T04:16:12.847Z,84.37
2023-05-12T04:18:40.936Z,84.24
2023-05-12T04:21:09.183Z,84.36
2023-05-12T04:23:37.012Z,84.37
2023-05-12T04:26:05.411Z,84.32
2023-05-12T04:28:33.369Z,84.28
2023-05-12T04:31:04.685Z,84.16
2023-05-12T04:33:32.894Z,84.13
2023-05-12T04:36:01.400Z,84.08
2023-05-12T04:38:29.455Z,84.11
2023-05-12T04:41:01.217Z,84.02
2023-05-12T04:46:01.407Z,83.92
2023-05-12T04:48:29.974Z,83.87
2023-05-12T04:51:00.930Z,83.82
2023-05-12T04:53:29.103Z,83.86
2023-05-12T04:55:56.922Z,83.92
2023-05-12T04:58:25.991Z,83.97
2023-05-12T05:00:55.252Z,83.90
2023-05-12T05:03:23.593Z,83.86
2023-05-12T05:05:51.644Z,83.60
2023-05-12T05:08:19.447Z,83.24
2023-05-12T05:10:47.218Z,83.28
2023-05-12T05:13:16.471Z,83.32
2023-05-12T05:15:54.694Z,83.27
2023-05-12T05:18:24.721Z,83.17
2023-05-12T05:20:58.436Z,83.23
2023-05-12T05:23:26.933Z,83.29
2023-05-12T05:25:55.235Z,83.23
2023-05-12T05:28:23.156Z,82.96
2023-05-12T05:30:50.932Z,82.77
2023-05-12T05:33:18.712Z,82.78
2023-05-12T05:35:48.025Z,82.66
2023-05-12T05:38:16.316Z,82.45
2023-05-12T05:40:52.848Z,82.11
2023-05-12T05:43:21.854Z,82.21
2023-05-12T05:45:50.826Z,82.20
2023-05-12T05:48:19.620Z,82.11
2023-05-12T05:50:48.732Z,82.03
2023-05-12T05:53:18.606Z,82.01
2023-05-12T05:55:48.773Z,82.00
2023-05-12T05:58:16.862Z,82.02
2023-05-12T06:00:45.351Z,82.04
2023-05-12T06:03:13.437Z,82.12
2023-05-12T06:05:43.185Z,81.94
2023-05-12T06:08:13.410Z,81.96
2023-05-12T06:10:41.721Z,81.67
2023-05-12T06:13:09.783Z,81.77
2023-05-12T06:15:37.696Z,81.53
2023-05-12T06:18:05.796Z,81.33
2023-05-12T06:20:33.759Z,81.29
2023-05-12T06:23:02.566Z,81.36
2023-05-12T06:25:30.468Z,81.41
2023-05-12T06:27:58.185Z,81.20
2023-05-12T06:30:26.892Z,81.22
2023-05-12T06:32:56.135Z,81.14
2023-05-12T06:35:23.947Z,80.96
2023-05-12T06:37:51.758Z,81.00
2023-05-12T06:40:19.616Z,80.97
2023-05-12T06:42:47.953Z,80.34
2023-05-12T06:45:21.155Z,80.31
2023-05-12T06:47:50.374Z,79.68
2023-05-12T06:50:19.447Z,79.29
2023-05-12T06:52:51.230Z,78.95
2023-05-12T06:55:20.692Z,79.07
2023-05-12T06:57:51.504Z,78.70
2023-05-12T07:00:19.701Z,78.30
2023-05-12T07:02:47.541Z,78.51
2023-05-12T07:05:15.374Z,78.23
2023-05-12T07:07:43.099Z,77.47
2023-05-12T07:10:11.196Z,77.34
2023-05-12T07:12:39.339Z,77.04
2023-05-12T07:15:08.582Z,77.04
2023-05-12T07:17:36.410Z,76.76
2023-05-12T07:20:05.759Z,76.45
2023-05-12T07:22:33.855Z,75.99
2023-05-12T07:25:01.811Z,75.88
2023-05-12T07:27:29.578Z,75.58
2023-05-12T07:29:57.624Z,74.71
2023-05-12T07:32:25.738Z,74.51
2023-05-12T07:34:53.513Z,74.55
2023-05-12T07:37:21.311Z,74.43
2023-05-12T07:39:49.614Z,73.87
2023-05-12T07:42:17.485Z,74.34
2023-05-12T07:44:45.265Z,74.58
2023-05-12T07:47:13.001Z,74.90
2023-05-12T07:49:40.974Z,74.97
2023-05-12T07:52:08.756Z,75.12
2023-05-12T07:54:36.496Z,74.93
2023-05-12T07:57:04.749Z,74.08
2023-05-12T07:59:33.329Z,74.19
2023-05-12T08:02:01.113Z,74.02
2023-05-12T08:04:29.029Z,74.10
2023-05-12T08:06:56.787Z,74.56
2023-05-12T08:09:24.659Z,74.55
2023-05-12T08:11:52.484Z,74.63
2023-05-12T08:14:22.370Z,74.79
2023-05-12T08:16:50.158Z,75.18
2023-05-12T08:19:18.098Z,75.58
2023-05-12T08:21:45.905Z,75.30
2023-05-12T08:24:13.629Z,75.34
2023-05-12T08:26:41.381Z,74.99
2023-05-12T08:29:09.654Z,74.90
2023-05-12T08:31:38.731Z,74.43
2023-05-12T08:34:10.775Z,74.42
2023-05-12T08:36:40.372Z,73.00
2023-05-12T08:39:11.639Z,73.12
2023-05-12T08:41:45.184Z,73.18
2023-05-12T08:44:13.206Z,73.57
2023-05-12T08:46:42.910Z,74.00
2023-05-12T08:49:16.503Z,73.81
2023-05-12T08:51:56.852Z,73.06
2023-05-12T08:54:29.487Z,73.05
2023-05-12T08:59:28.212Z,73.72
2023-05-12T09:01:56.987Z,73.75
2023-05-12T09:04:24.869Z,73.78
2023-05-12T09:06:55.587Z,74.08
2023-05-12T09:09:28.440Z,74.45
2023-05-12T09:11:59.833Z,74.62
2023-05-12T09:14:33.844Z,74.64
2023-05-12T09:17:05.324Z,74.99
2023-05-12T09:19:34.390Z,74.90
2023-05-12T09:22:02.187Z,74.18
2023-05-12T09:24:38.316Z,72.54
2023-05-12T09:27:07.320Z,72.03
2023-05-12T09:29:42.539Z,70.93
2023-05-12T09:32:34.175Z,70.80
2023-05-12T09:35:07.830Z,70.42
2023-05-12T09:37:35.621Z,69.80
2023-05-12T09:40:06.761Z,69.31
2023-05-12T09:42:35.866Z,68.99
2023-05-12T09:45:05.859Z,69.29
2023-05-12T09:47:41.031Z,69.26
2023-05-12T09:50:10.233Z,69.18
2023-05-12T09:52:39.826Z,68.56
2023-05-12T09:55:13.214Z,68.13
2023-05-12T09:57:45.644Z,68.11
2023-05-12T10:00:36.585Z,68.33
2023-05-12T10:03:15.318Z,68.74
2023-05-12T10:05:51.789Z,68.73
2023-05-12T10:08:34.916Z,68.06
2023-05-12T10:11:05.435Z,68.31
2023-05-12T10:13:34.693Z,67.87
2023-05-12T10:16:03.620Z,68.30
2023-05-12T10:18:34.618Z,68.94
2023-05-12T10:21:04.033Z,68.15
2023-05-12T10:23:32.811Z,68.24
2023-05-12T10:26:02.453Z,68.97
2023-05-12T10:28:30.325Z,68.75
2023-05-12T10:30:59.445Z,68.20
2023-05-12T10:33:27.755Z,68.12
2023-05-12T10:35:55.823Z,68.72
2023-05-12T10:38:23.789Z,68.81
2023-05-12T10:41:05.555Z,68.68
2023-05-12T10:43:48.137Z,69.34
2023-05-12T10:46:19.604Z,69.86
2023-05-12T10:49:08.463Z,71.28
2023-05-12T10:51:45.328Z,72.44
2023-05-12T10:54:21.852Z,73.18
2023-05-12T10:56:50.361Z,73.63
2023-05-12T10:59:23.072Z,72.84
2023-05-12T11:02:06.940Z,73.21
2023-05-12T11:04:55.537Z,73.88
2023-05-12T11:07:30.533Z,74.82
2023-05-12T11:10:02.017Z,75.07
2023-05-12T11:12:33.476Z,75.81
2023-05-12T11:15:03.912Z,76.82
2023-05-12T11:17:32.565Z,76.84
2023-05-12T11:20:01.471Z,76.21
2023-05-12T11:22:29.726Z,76.14
2023-05-12T11:24:57.728Z,77.08
2023-05-12T11:27:26.544Z,78.05
2023-05-12T11:30:00.670Z,77.79
2023-05-12T11:32:29.702Z,78.38
2023-05-12T11:35:16.459Z,77.00
2023-05-12T11:37:46.263Z,77.67
2023-05-12T11:40:22.907Z,78.50
2023-05-12T11:42:53.021Z,78.73
2023-05-12T11:45:27.566Z,78.40
2023-05-12T11:48:13.809Z,78.62
2023-05-12T11:50:48.678Z,79.73
2023-05-12T11:53:19.214Z,79.15
2023-05-12T11:55:56.371Z,79.51
2023-05-12T11:58:27.232Z,78.41
2023-05-12T12:00:57.271Z,78.66
2023-05-12T12:03:25.765Z,78.42
2023-05-12T12:06:06.667Z,78.18
2023-05-12T12:08:34.554Z,77.85
2023-05-12T12:11:04.149Z,78.20
2023-05-12T12:13:32.026Z,78.32
2023-05-12T12:15:59.914Z,78.16
2023-05-12T12:18:27.727Z,78.24
2023-05-12T12:20:55.540Z,78.08
2023-05-12T12:23:23.386Z,76.73
2023-05-12T12:25:51.518Z,77.09
2023-05-12T12:28:19.945Z,77.04
2023-05-12T12:30:48.017Z,76.16
2023-05-12T12:33:18.888Z,76.91
2023-05-12T12:35:48.361Z,77.32
2023-05-12T12:38:16.510Z,77.63
2023-05-12T12:40:44.687Z,77.47
2023-05-12T12:43:12.463Z,77.26
2023-05-12T12:45:40.243Z,76.66
2023-05-12T12:48:09.513Z,76.70
2023-05-12T12:50:37.492Z,76.96
2023-05-12T12:53:05.676Z,76.95
2023-05-12T12:55:33.462Z,76.55
2023-05-12T12:58:01.344Z,76.12
2023-05-12T13:00:29.481Z,75.63
2023-05-12T13:02:57.559Z,75.73
2023-05-12T13:05:25.767Z,75.19
2023-05-12T13:07:53.572Z,75.19
2023-05-12T13:10:21.468Z,75.57
2023-05-12T13:12:49.212Z,75.57
2023-05-12T13:15:19.485Z,74.51
2023-05-12T13:17:47.898Z,75.05
2023-05-12T13:20:16.565Z,75.60
2023-05-12T13:22:45.445Z,75.73
2023-05-12T13:25:13.208Z,76.35
2023-05-12T13:27:41.115Z,76.72
2023-05-12T13:30:10.891Z,76.82
2023-05-12T13:32:40.829Z,76.90
2023-05-12T13:35:09.582Z,76.67
2023-05-12T13:37:37.817Z,76.66
2023-05-12T13:40:06.919Z,77.05
2023-05-12T13:42:34.989Z,77.27
2023-05-12T13:45:03.121Z,77.39
2023-05-12T13:47:30.988Z,77.53
2023-05-12T13:49:58.975Z,77.34
2023-05-12T13:52:27.506Z,77.39
2023-05-12T13:54:55.330Z,77.45
2023-05-12T13:57:23.162Z,77.42
2023-05-12T13:59:52.094Z,77.52
2023-05-12T14:02:19.926Z,77.40
2023-05-12T14:04:47.803Z,77.04
2023-05-12T14:07:15.831Z,76.75
2023-05-12T14:09:43.575Z,75.92
2023-05-12T14:12:11.413Z,76.06
2023-05-12T14:14:39.162Z,76.30
2023-05-12T14:17:06.954Z,76.23
2023-05-12T14:19:35.799Z,76.43
2023-05-12T14:22:12.520Z,76.69
2023-05-12T14:24:46.719Z,77.33
2023-05-12T14:27:14.475Z,77.32
2023-05-12T14:29:42.236Z,77.47
2023-05-12T14:32:10.236Z,77.76
2023-05-12T14:34:38.072Z,77.79
2023-05-12T14:37:06.435Z,78.03
2023-05-12T14:39:34.401Z,78.21
2023-05-12T14:42:02.146Z,78.24
2023-05-12T14:44:29.867Z,78.38
2023-05-12T14:46:57.778Z,78.33
2023-05-12T14:49:25.607Z,78.49
2023-05-12T14:51:53.363Z,78.56
2023-05-12T14:54:25.720Z,78.71
2023-05-12T14:56:54.061Z,78.83
2023-05-12T14:59:22.176Z,78.79
2023-05-12T15:01:50.235Z,78.43
2023-05-12T15:04:18.156Z,78.20
2023-05-12T15:06:46.000Z,78.30
2023-05-12T15:09:13.838Z,78.29
2023-05-12T15:11:45.384Z,78.26
2023-05-12T15:14:13.224Z,78.30
2023-05-12T15:16:41.863Z,78.45
2023-05-12T15:19:10.028Z,78.74
2023-05-12T15:21:38.099Z,78.54
2023-05-12T15:24:06.443Z,78.44
2023-05-12T15:26:35.620Z,78.35
2023-05-12T15:29:04.678Z,77.91
2023-05-12T15:31:32.504Z,77.91
2023-05-12T15:34:00.802Z,78.13
2023-05-12T15:36:28.606Z,78.45
2023-05-12T15:38:56.714Z,78.39
2023-05-12T15:41:24.504Z,78.74
2023-05-12T15:43:52.280Z,78.91
2023-05-12T15:46:20.096Z,78.99
2023-05-12T15:48:50.905Z,79.15
2023-05-12T15:51:18.763Z,79.15
2023-05-12T15:53:46.782Z,79.03
2023-05-12T15:56:14.653Z,78.98
2023-05-12T15:58:42.511Z,78.94
2023-05-12T16:01:10.497Z,79.03
2023-05-12T16:03:38.663Z,79.13
2023-05-12T16:06:08.219Z,78.84
2023-05-12T16:08:36.837Z,78.72
2023-05-12T16:11:05.288Z,79.12
2023-05-12T16:13:33.277Z,79.28
2023-05-12T16:16:02.055Z,79.55
2023-05-12T16:18:31.240Z,79.72
2023-05-12T16:20:59.512Z,80.01
2023-05-12T16:23:28.159Z,80.29
2023-05-12T16:25:56.021Z,80.46
2023-05-12T16:28:23.852Z,80.32
2023-05-12T16:30:51.601Z,80.43
2023-05-12T16:33:19.587Z,80.38
2023-05-12T16:35:47.399Z,80.36
2023-05-12T16:38:15.311Z,80.46
2023-05-12T16:40:43.110Z,80.64
2023-05-12T16:43:10.932Z,80.64
2023-05-12T16:45:39.072Z,80.73
2023-05-12T16:48:06.932Z,80.87
2023-05-12T16:50:34.776Z,80.83
2023-05-12T16:53:02.562Z,80.86
2023-05-12T16:55:30.866Z,80.86
2023-05-12T16:57:58.638Z,81.02
2023-05-12T17:00:26.889Z,81.13
2023-05-12T17:02:55.118Z,81.22
2023-05-12T17:05:23.339Z,81.16
2023-05-12T17:07:51.218Z,81.06
2023-05-12T17:10:18.971Z,81.11
2023-05-12T17:12:46.820Z,81.16
2023-05-12T17:15:14.744Z,81.15
2023-05-12T17:17:42.545Z,81.18
2023-05-12T17:20:11.702Z,81.20
2023-05-12T17:22:43.997Z,81.23
2023-05-12T17:25:12.584Z,81.46
2023-05-12T17:27:40.445Z,81.34
2023-05-12T17:30:09.224Z,81.49
2023-05-12T17:32:37.424Z,81.52
2023-05-12T17:35:08.000Z,81.52
2023-05-12T17:37:37.227Z,81.50
2023-05-12T17:40:14.562Z,81.45
2023-05-12T17:42:42.372Z,81.57
2023-05-12T17:45:11.453Z,81.52
2023-05-12T17:47:39.319Z,81.54
2023-05-12T17:50:10.752Z,81.52
2023-05-12T17:52:39.282Z,81.51
2023-05-12T17:55:08.202Z,81.38
2023-05-12T17:57:38.076Z,81.56
2023-05-12T18:00:10.434Z,81.71
2023-05-12T18:02:45.052Z,81.96
2023-05-12T18:05:12.987Z,82.09
2023-05-12T18:07:40.757Z,82.18
2023-05-12T18:10:11.126Z,82.16
2023-05-12T18:12:39.195Z,82.34
2023-05-12T18:15:08.626Z,82.52
2023-05-12T18:17:36.772Z,82.78
2023-05-12T18:20:06.616Z,82.88
2023-05-12T18:22:34.507Z,83.05
2023-05-12T18:25:02.479Z,83.07
2023-05-12T18:27:30.443Z,83.11
2023-05-12T18:29:59.758Z,83.20
2023-05-12T18:32:27.623Z,83.14
2023-05-12T18:34:55.394Z,83.09
2023-05-12T18:37:23.562Z,83.14
2023-05-12T18:39:53.361Z,83.20
2023-05-12T18:42:21.246Z,83.36
2023-05-12T18:44:49.202Z,83.32
2023-05-12T18:47:17.264Z,83.36
2023-05-12T18:49:45.201Z,83.28
2023-05-12T18:52:13.793Z,83.11
2023-05-12T18:54:42.207Z,82.93
2023-05-12T18:57:10.307Z,83.09
2023-05-12T18:59:38.735Z,83.24
2023-05-12T19:02:07.940Z,83.37
2023-05-12T19:04:37.038Z,83.33
2023-05-12T19:07:10.022Z,83.34
2023-05-12T19:09:38.708Z,83.40
2023-05-12T19:12:11.958Z,83.29
2023-05-12T19:14:41.640Z,83.25
2023-05-12T19:17:11.189Z,83.19
2023-05-12T19:19:40.314Z,83.21
2023-05-12T19:22:08.504Z,83.15
2023-05-12T19:24:38.487Z,83.16
2023-05-12T19:27:06.838Z,83.27
2023-05-12T19:29:34.680Z,83.16
2023-05-12T19:32:02.787Z,83.25
2023-05-12T19:34:31.581Z,83.36
2023-05-12T19:37:02.226Z,83.37
2023-05-12T19:39:30.041Z,83.44
2023-05-12T19:41:58.093Z,83.46
2023-05-12T19:44:25.847Z,83.48
2023-05-12T19:46:55.064Z,83.49
2023-05-12T19:49:22.802Z,83.34
2023-05-12T19:51:51.841Z,83.43
2023-05-12T19:54:22.339Z,83.46
2023-05-12T19:56:50.275Z,83.43
2023-05-12T19:59:18.857Z,83.39
2023-05-12T20:01:47.257Z,83.42
2023-05-12T20:04:16.210Z,83.46
2023-05-12T20:06:44.864Z,83.38
2023-05-12T20:09:13.058Z,83.45
2023-05-12T20:11:41.151Z,83.40
2023-05-12T20:14:08.967Z,83.50
2023-05-12T20:16:38.207Z,83.43
2023-05-12T20:19:06.217Z,83.52
2023-05-12T20:21:34.351Z,83.63
2023-05-12T20:24:02.179Z,83.77
2023-05-12T20:26:30.631Z,83.68
2023-05-12T20:28:59.619Z,83.58
2023-05-12T20:31:27.802Z,83.64
2023-05-12T20:33:56.381Z,83.52
2023-05-12T20:36:24.113Z,83.74
2023-05-12T20:38:51.967Z,83.73
2023-05-12T20:41:20.212Z,83.53
2023-05-12T20:43:49.074Z,83.50
2023-05-12T20:46:17.394Z,83.58
2023-05-12T20:48:45.534Z,83.69
2023-05-12T20:51:13.946Z,83.67
2023-05-12T20:53:42.766Z,83.58
2023-05-12T20:56:13.287Z,83.77
2023-05-12T20:58:42.465Z,83.92
2023-05-12T21:01:11.094Z,84.00
2023-05-12T21:03:39.337Z,84.00
2023-05-12T21:06:07.440Z,84.13
2023-05-12T21:08:35.429Z,84.37
2023-05-12T21:11:03.193Z,84.45
2023-05-12T21:13:31.003Z,84.52
2023-05-12T21:15:58.731Z,84.58
2023-05-12T21:18:27.073Z,84.47
2023-05-12T21:20:54.913Z,84.32
2023-05-12T21:23:22.631Z,84.35
2023-05-12T21:25:53.681Z,84.48
2023-05-12T21:28:22.054Z,84.54
2023-05-12T21:30:49.865Z,84.61
2023-05-12T21:33:17.620Z,84.71
2023-05-12T21:35:45.584Z,84.81
2023-05-12T21:38:13.392Z,84.82
2023-05-12T21:40:41.125Z,84.95
2023-05-12T21:43:08.905Z,84.91
2023-05-12T21:45:37.237Z,84.92
2023-05-12T21:48:05.579Z,84.96
2023-05-12T21:50:33.454Z,84.93
2023-05-12T21:53:01.270Z,84.92
2023-05-12T21:55:29.065Z,84.82
2023-05-12T21:57:57.400Z,84.93
2023-05-12T22:00:26.279Z,84.91
2023-05-12T22:02:54.261Z,84.93
2023-05-12T22:05:22.121Z,85.10
2023-05-12T22:07:49.923Z,85.28
2023-05-12T22:10:18.252Z,85.53
2023-05-12T22:12:46.596Z,85.51
2023-05-12T22:15:14.767Z,85.46
2023-05-12T22:17:43.201Z,85.52
2023-05-12T22:20:12.079Z,85.54
2023-05-12T22:22:40.055Z,85.51
2023-05-12T22:25:08.943Z,85.54
2023-05-12T22:27:37.382Z,85.51
2023-05-12T22:30:06.044Z,85.57
2023-05-12T22:32:33.969Z,85.71
2023-05-12T22:35:02.310Z,85.57
2023-05-12T22:37:30.228Z,85.55
2023-05-12T22:39:58.068Z,85.51
2023-05-12T22:42:25.811Z,85.67
2023-05-12T22:44:53.512Z,85.71
2023-05-12T22:47:21.505Z,85.56
2023-05-12T22:49:49.313Z,85.47
2023-05-12T22:52:17.040Z,85.54
2023-05-12T22:54:44.761Z,85.61
2023-05-12T22:57:12.538Z,85.48
2023-05-12T22:59:40.389Z,85.43
2023-05-12T23:02:08.629Z,85.27
2023-05-12T23:04:36.402Z,85.22
2023-05-12T23:07:05.374Z,85.31
2023-05-12T23:09:34.716Z,85.50
2023-05-12T23:12:04.291Z,85.64
2023-05-12T23:14:32.153Z,85.77
2023-05-12T23:17:00.046Z,85.89
2023-05-12T23:19:27.974Z,85.82
2023-05-12T23:21:55.862Z,85.82
2023-05-12T23:24:23.726Z,85.90
2023-05-12T23:26:51.551Z,85.76
2023-05-12T23:29:19.283Z,85.54
2023-05-12T23:31:47.268Z,85.44
2023-05-12T23:34:15.098Z,85.42
2023-05-12T23:36:42.850Z,85.41
2023-05-12T23:39:10.720Z,85.39
2023-05-12T23:41:38.452Z,85.35
2023-05-12T23:44:06.343Z,85.50
2023-05-12T23:46:34.492Z,85.47
2023-05-12T23:49:02.281Z,85.36
2023-05-12T23:51:30.067Z,85.43
2023-05-12T23:53:57.881Z,85.32
2023-05-12T23:56:25.762Z,85.25
2023-05-12T23:58:53.607Z,85.19
